sensor_id;sensor_type;location;lat;lon;timestamp;P1;durP1;ratioP1;P2;durP2;ratioP2
39016;SDS011;24784;45.582;5.276;2022-10-16T00:02:02;7.25;;;2.80;;
39016;SDS011;24784;45.582;5.276;2022-10-16T00:04:28;6.60;;;3.05;;
39016;SDS011;24784;45.582;5.276;2022-10-16T00:06:53;6.70;;;3.33;;
39016;SDS011;24784;45.582;5.276;2022-10-16T00:09:22;3.13;;;2.42;;
39016;SDS011;24784;45.582;5.276;2022-10-16T00:11:48;7.85;;;3.60;;
39016;SDS011;24784;45.582;5.276;2022-10-16T00:14:14;6.70;;;2.72;;
39016;SDS011;24784;45.582;5.276;2022-10-16T00:16:41;7.13;;;3.10;;
39016;SDS011;24784;45.582;5.276;2022-10-16T00:19:07;8.40;;;3.00;;
39016;SDS011;24784;45.582;5.276;2022-10-16T00:21:34;7.35;;;2.97;;
39016;SDS011;24784;45.582;5.276;2022-10-16T00:24:01;9.32;;;3.38;;
39016;SDS011;24784;45.582;5.276;2022-10-16T00:26:32;7.93;;;2.92;;
39016;SDS011;24784;45.582;5.276;2022-10-16T00:28:58;8.68;;;3.30;;
39016;SDS011;24784;45.582;5.276;2022-10-16T00:31:24;6.78;;;3.08;;
39016;SDS011;24784;45.582;5.276;2022-10-16T00:33:51;6.32;;;3.30;;
39016;SDS011;24784;45.582;5.276;2022-10-16T00:36:20;6.35;;;3.40;;
39016;SDS011;24784;45.582;5.276;2022-10-16T00:38:49;15.45;;;4.25;;
39016;SDS011;24784;45.582;5.276;2022-10-16T00:41:19;4.72;;;3.30;;
39016;SDS011;24784;45.582;5.276;2022-10-16T00:51:32;8.43;;;4.27;;
39016;SDS011;24784;45.582;5.276;2022-10-16T00:56:49;7.15;;;3.22;;
39016;SDS011;24784;45.582;5.276;2022-10-16T00:59:18;6.88;;;3.90;;
39016;SDS011;24784;45.582;5.276;2022-10-16T01:01:51;7.18;;;3.55;;
39016;SDS011;24784;45.582;5.276;2022-10-16T01:04:18;7.10;;;3.58;;
39016;SDS011;24784;45.582;5.276;2022-10-16T01:12:01;10.93;;;3.22;;
39016;SDS011;24784;45.582;5.276;2022-10-16T01:18:00;5.68;;;3.53;;
39016;SDS011;24784;45.582;5.276;2022-10-16T01:20:59;9.98;;;3.15;;
39016;SDS011;24784;45.582;5.276;2022-10-16T01:24:03;11.48;;;3.67;;
39016;SDS011;24784;45.582;5.276;2022-10-16T01:29:42;8.48;;;3.05;;
39016;SDS011;24784;45.582;5.276;2022-10-16T01:35:25;9.77;;;4.47;;
39016;SDS011;24784;45.582;5.276;2022-10-16T01:38:03;6.93;;;3.43;;
39016;SDS011;24784;45.582;5.276;2022-10-16T01:40:38;13.30;;;3.53;;
39016;SDS011;24784;45.582;5.276;2022-10-16T01:43:09;11.25;;;4.32;;
39016;SDS011;24784;45.582;5.276;2022-10-16T01:45:39;5.47;;;3.50;;
39016;SDS011;24784;45.582;5.276;2022-10-16T01:48:07;7.45;;;3.38;;
39016;SDS011;24784;45.582;5.276;2022-10-16T01:50:37;8.98;;;3.63;;
39016;SDS011;24784;45.582;5.276;2022-10-16T01:53:06;8.63;;;3.53;;
39016;SDS011;24784;45.582;5.276;2022-10-16T01:55:35;6.20;;;3.45;;
39016;SDS011;24784;45.582;5.276;2022-10-16T01:58:07;6.63;;;3.50;;
39016;SDS011;24784;45.582;5.276;2022-10-16T02:00:34;6.82;;;3.25;;
39016;SDS011;24784;45.582;5.276;2022-10-16T02:03:03;7.70;;;3.60;;
39016;SDS011;24784;45.582;5.276;2022-10-16T02:05:32;9.13;;;4.22;;
39016;SDS011;24784;45.582;5.276;2022-10-16T02:08:04;6.97;;;3.27;;
39016;SDS011;24784;45.582;5.276;2022-10-16T02:10:30;12.85;;;4.18;;
39016;SDS011;24784;45.582;5.276;2022-10-16T02:15:37;5.32;;;3.60;;
39016;SDS011;24784;45.582;5.276;2022-10-16T02:18:03;9.75;;;4.03;;
39016;SDS011;24784;45.582;5.276;2022-10-16T02:20:49;5.75;;;4.05;;
39016;SDS011;24784;45.582;5.276;2022-10-16T02:23:29;8.15;;;4.25;;
39016;SDS011;24784;45.582;5.276;2022-10-16T02:26:12;9.90;;;3.88;;
39016;SDS011;24784;45.582;5.276;2022-10-16T02:28:44;7.78;;;4.55;;
39016;SDS011;24784;45.582;5.276;2022-10-16T02:31:14;9.68;;;4.03;;
39016;SDS011;24784;45.582;5.276;2022-10-16T02:33:43;14.10;;;4.65;;
39016;SDS011;24784;45.582;5.276;2022-10-16T02:36:10;7.45;;;3.92;;
39016;SDS011;24784;45.582;5.276;2022-10-16T02:38:37;8.38;;;3.92;;
39016;SDS011;24784;45.582;5.276;2022-10-16T02:41:05;6.82;;;4.40;;
39016;SDS011;24784;45.582;5.276;2022-10-16T02:43:31;8.15;;;4.40;;
39016;SDS011;24784;45.582;5.276;2022-10-16T02:45:58;8.77;;;4.10;;
39016;SDS011;24784;45.582;5.276;2022-10-16T02:48:24;12.63;;;4.47;;
39016;SDS011;24784;45.582;5.276;2022-10-16T02:50:50;8.95;;;4.40;;
39016;SDS011;24784;45.582;5.276;2022-10-16T02:53:16;15.13;;;4.78;;
39016;SDS011;24784;45.582;5.276;2022-10-16T02:55:42;7.30;;;4.47;;
39016;SDS011;24784;45.582;5.276;2022-10-16T02:58:08;6.05;;;4.78;;
39016;SDS011;24784;45.582;5.276;2022-10-16T03:00:33;10.02;;;4.80;;
39016;SDS011;24784;45.582;5.276;2022-10-16T03:02:59;8.85;;;4.40;;
39016;SDS011;24784;45.582;5.276;2022-10-16T03:05:25;7.00;;;4.70;;
39016;SDS011;24784;45.582;5.276;2022-10-16T03:07:51;10.00;;;4.32;;
39016;SDS011;24784;45.582;5.276;2022-10-16T03:10:17;7.07;;;4.30;;
39016;SDS011;24784;45.582;5.276;2022-10-16T03:12:43;7.13;;;3.88;;
39016;SDS011;24784;45.582;5.276;2022-10-16T03:15:09;10.48;;;5.05;;
39016;SDS011;24784;45.582;5.276;2022-10-16T03:17:35;5.57;;;4.18;;
39016;SDS011;24784;45.582;5.276;2022-10-16T03:20:01;7.57;;;4.15;;
39016;SDS011;24784;45.582;5.276;2022-10-16T03:22:27;11.43;;;5.05;;
39016;SDS011;24784;45.582;5.276;2022-10-16T03:24:53;12.35;;;5.20;;
39016;SDS011;24784;45.582;5.276;2022-10-16T03:27:20;6.55;;;4.53;;
39016;SDS011;24784;45.582;5.276;2022-10-16T03:29:46;9.30;;;4.43;;
39016;SDS011;24784;45.582;5.276;2022-10-16T03:32:12;12.10;;;5.35;;
39016;SDS011;24784;45.582;5.276;2022-10-16T03:34:38;7.18;;;4.90;;
39016;SDS011;24784;45.582;5.276;2022-10-16T03:37:03;8.70;;;5.30;;
39016;SDS011;24784;45.582;5.276;2022-10-16T03:39:29;9.15;;;5.30;;
39016;SDS011;24784;45.582;5.276;2022-10-16T03:41:55;13.27;;;4.88;;
39016;SDS011;24784;45.582;5.276;2022-10-16T03:44:21;6.57;;;4.80;;
39016;SDS011;24784;45.582;5.276;2022-10-16T03:46:47;8.85;;;5.30;;
39016;SDS011;24784;45.582;5.276;2022-10-16T03:49:13;12.57;;;4.82;;
39016;SDS011;24784;45.582;5.276;2022-10-16T03:51:38;10.75;;;5.18;;
39016;SDS011;24784;45.582;5.276;2022-10-16T03:54:04;8.68;;;5.18;;
39016;SDS011;24784;45.582;5.276;2022-10-16T03:56:30;6.55;;;5.07;;
39016;SDS011;24784;45.582;5.276;2022-10-16T03:58:56;7.97;;;5.07;;
39016;SDS011;24784;45.582;5.276;2022-10-16T04:01:22;13.43;;;5.47;;
39016;SDS011;24784;45.582;5.276;2022-10-16T04:03:48;14.40;;;5.53;;
39016;SDS011;24784;45.582;5.276;2022-10-16T04:06:13;11.25;;;5.30;;
39016;SDS011;24784;45.582;5.276;2022-10-16T04:08:41;11.90;;;5.47;;
39016;SDS011;24784;45.582;5.276;2022-10-16T04:11:08;8.07;;;5.65;;
39016;SDS011;24784;45.582;5.276;2022-10-16T04:13:34;9.75;;;5.60;;
39016;SDS011;24784;45.582;5.276;2022-10-16T04:16:00;18.08;;;5.38;;
39016;SDS011;24784;45.582;5.276;2022-10-16T04:18:25;7.47;;;5.03;;
39016;SDS011;24784;45.582;5.276;2022-10-16T04:20:52;9.23;;;5.50;;
39016;SDS011;24784;45.582;5.276;2022-10-16T04:23:19;11.05;;;5.53;;
39016;SDS011;24784;45.582;5.276;2022-10-16T04:25:45;12.10;;;5.68;;
39016;SDS011;24784;45.582;5.276;2022-10-16T04:28:10;10.25;;;5.88;;
39016;SDS011;24784;45.582;5.276;2022-10-16T04:30:39;12.05;;;5.45;;
39016;SDS011;24784;45.582;5.276;2022-10-16T04:33:05;10.05;;;4.88;;
39016;SDS011;24784;45.582;5.276;2022-10-16T04:35:33;11.48;;;5.00;;
39016;SDS011;24784;45.582;5.276;2022-10-16T04:37:59;8.80;;;4.97;;
39016;SDS011;24784;45.582;5.276;2022-10-16T04:40:25;8.90;;;5.32;;
39016;SDS011;24784;45.582;5.276;2022-10-16T04:42:50;11.05;;;6.07;;
39016;SDS011;24784;45.582;5.276;2022-10-16T04:45:16;11.20;;;5.50;;
39016;SDS011;24784;45.582;5.276;2022-10-16T04:47:42;11.75;;;5.38;;
39016;SDS011;24784;45.582;5.276;2022-10-16T04:50:08;12.05;;;5.82;;
39016;SDS011;24784;45.582;5.276;2022-10-16T04:52:34;8.93;;;5.57;;
39016;SDS011;24784;45.582;5.276;2022-10-16T04:55:00;12.20;;;5.55;;
39016;SDS011;24784;45.582;5.276;2022-10-16T04:57:28;8.77;;;5.15;;
39016;SDS011;24784;45.582;5.276;2022-10-16T04:59:54;11.10;;;5.55;;
39016;SDS011;24784;45.582;5.276;2022-10-16T05:02:20;7.80;;;5.03;;
39016;SDS011;24784;45.582;5.276;2022-10-16T05:04:46;8.45;;;5.32;;
39016;SDS011;24784;45.582;5.276;2022-10-16T05:07:12;8.15;;;5.40;;
39016;SDS011;24784;45.582;5.276;2022-10-16T05:09:37;11.48;;;5.65;;
39016;SDS011;24784;45.582;5.276;2022-10-16T05:12:03;11.95;;;5.07;;
39016;SDS011;24784;45.582;5.276;2022-10-16T05:14:29;11.82;;;5.55;;
39016;SDS011;24784;45.582;5.276;2022-10-16T05:16:56;8.18;;;5.25;;
39016;SDS011;24784;45.582;5.276;2022-10-16T05:19:21;11.40;;;5.60;;
39016;SDS011;24784;45.582;5.276;2022-10-16T05:21:47;11.98;;;5.40;;
39016;SDS011;24784;45.582;5.276;2022-10-16T05:24:13;11.68;;;6.07;;
39016;SDS011;24784;45.582;5.276;2022-10-16T05:26:39;13.50;;;6.22;;
39016;SDS011;24784;45.582;5.276;2022-10-16T05:29:05;12.52;;;5.47;;
39016;SDS011;24784;45.582;5.276;2022-10-16T05:31:31;9.88;;;4.50;;
39016;SDS011;24784;45.582;5.276;2022-10-16T05:34:00;11.07;;;4.93;;
39016;SDS011;24784;45.582;5.276;2022-10-16T05:36:25;12.48;;;5.25;;
39016;SDS011;24784;45.582;5.276;2022-10-16T05:38:52;10.95;;;5.78;;
39016;SDS011;24784;45.582;5.276;2022-10-16T05:41:18;8.35;;;5.38;;
39016;SDS011;24784;45.582;5.276;2022-10-16T05:43:49;10.05;;;5.55;;
39016;SDS011;24784;45.582;5.276;2022-10-16T05:46:21;11.63;;;5.78;;
39016;SDS011;24784;45.582;5.276;2022-10-16T05:48:46;9.10;;;5.85;;
39016;SDS011;24784;45.582;5.276;2022-10-16T05:51:13;11.10;;;5.47;;
39016;SDS011;24784;45.582;5.276;2022-10-16T05:53:42;6.70;;;4.82;;
39016;SDS011;24784;45.582;5.276;2022-10-16T05:56:10;9.15;;;5.30;;
39016;SDS011;24784;45.582;5.276;2022-10-16T05:58:37;11.90;;;5.97;;
39016;SDS011;24784;45.582;5.276;2022-10-16T06:01:12;10.35;;;4.85;;
39016;SDS011;24784;45.582;5.276;2022-10-16T06:03:40;10.57;;;6.03;;
39016;SDS011;24784;45.582;5.276;2022-10-16T06:06:15;10.63;;;6.00;;
39016;SDS011;24784;45.582;5.276;2022-10-16T06:08:46;10.15;;;5.20;;
39016;SDS011;24784;45.582;5.276;2022-10-16T06:11:17;11.38;;;5.78;;
39016;SDS011;24784;45.582;5.276;2022-10-16T06:13:53;11.20;;;5.90;;
39016;SDS011;24784;45.582;5.276;2022-10-16T06:16:22;10.85;;;6.00;;
39016;SDS011;24784;45.582;5.276;2022-10-16T06:18:52;11.00;;;5.70;;
39016;SDS011;24784;45.582;5.276;2022-10-16T06:21:24;12.50;;;5.82;;
39016;SDS011;24784;45.582;5.276;2022-10-16T06:23:54;6.85;;;5.47;;
39016;SDS011;24784;45.582;5.276;2022-10-16T06:26:33;11.50;;;5.30;;
39016;SDS011;24784;45.582;5.276;2022-10-16T06:29:02;12.10;;;5.95;;
39016;SDS011;24784;45.582;5.276;2022-10-16T06:31:33;10.00;;;6.00;;
39016;SDS011;24784;45.582;5.276;2022-10-16T06:34:04;7.85;;;5.30;;
39016;SDS011;24784;45.582;5.276;2022-10-16T06:36:38;7.18;;;5.13;;
39016;SDS011;24784;45.582;5.276;2022-10-16T06:39:07;12.93;;;5.55;;
39016;SDS011;24784;45.582;5.276;2022-10-16T06:41:53;8.77;;;5.40;;
39016;SDS011;24784;45.582;5.276;2022-10-16T06:44:30;8.27;;;5.15;;
39016;SDS011;24784;45.582;5.276;2022-10-16T06:47:03;11.48;;;5.28;;
39016;SDS011;24784;45.582;5.276;2022-10-16T06:49:39;7.63;;;5.18;;
39016;SDS011;24784;45.582;5.276;2022-10-16T06:52:19;8.02;;;4.72;;
39016;SDS011;24784;45.582;5.276;2022-10-16T06:54:57;5.55;;;4.38;;
39016;SDS011;24784;45.582;5.276;2022-10-16T06:57:54;11.38;;;5.22;;
39016;SDS011;24784;45.582;5.276;2022-10-16T07:00:22;9.82;;;5.00;;
39016;SDS011;24784;45.582;5.276;2022-10-16T07:02:53;14.00;;;5.05;;
39016;SDS011;24784;45.582;5.276;2022-10-16T07:05:22;6.57;;;4.90;;
39016;SDS011;24784;45.582;5.276;2022-10-16T07:07:55;8.23;;;5.03;;
39016;SDS011;24784;45.582;5.276;2022-10-16T07:10:24;8.35;;;4.47;;
39016;SDS011;24784;45.582;5.276;2022-10-16T07:16:14;10.45;;;4.50;;
39016;SDS011;24784;45.582;5.276;2022-10-16T07:18:59;5.93;;;4.47;;
39016;SDS011;24784;45.582;5.276;2022-10-16T07:21:49;9.20;;;4.97;;
39016;SDS011;24784;45.582;5.276;2022-10-16T07:24:22;7.43;;;4.35;;
39016;SDS011;24784;45.582;5.276;2022-10-16T07:27:22;6.22;;;4.30;;
39016;SDS011;24784;45.582;5.276;2022-10-16T07:33:22;8.40;;;4.15;;
39016;SDS011;24784;45.582;5.276;2022-10-16T07:41:18;10.25;;;4.40;;
39016;SDS011;24784;45.582;5.276;2022-10-16T07:44:27;8.48;;;4.13;;
39016;SDS011;24784;45.582;5.276;2022-10-16T07:47:04;9.20;;;4.43;;
39016;SDS011;24784;45.582;5.276;2022-10-16T07:50:08;6.68;;;4.35;;
39016;SDS011;24784;45.582;5.276;2022-10-16T08:08:18;11.43;;;4.25;;
39016;SDS011;24784;45.582;5.276;2022-10-16T08:16:09;7.57;;;3.17;;
39016;SDS011;24784;45.582;5.276;2022-10-16T08:21:36;5.60;;;3.40;;
39016;SDS011;24784;45.582;5.276;2022-10-16T09:27:52;3.83;;;2.40;;
39016;SDS011;24784;45.582;5.276;2022-10-16T11:42:23;4.47;;;2.10;;
39016;SDS011;24784;45.582;5.276;2022-10-16T11:45:50;6.40;;;2.08;;
39016;SDS011;24784;45.582;5.276;2022-10-16T11:55:54;8.15;;;2.40;;
39016;SDS011;24784;45.582;5.276;2022-10-16T12:03:41;5.03;;;2.03;;
39016;SDS011;24784;45.582;5.276;2022-10-16T12:06:40;4.40;;;2.20;;
39016;SDS011;24784;45.582;5.276;2022-10-16T12:09:27;9.85;;;2.50;;
39016;SDS011;24784;45.582;5.276;2022-10-16T12:12:03;5.38;;;2.50;;
39016;SDS011;24784;45.582;5.276;2022-10-16T12:14:59;4.32;;;2.08;;
39016;SDS011;24784;45.582;5.276;2022-10-16T12:17:36;6.35;;;2.08;;
39016;SDS011;24784;45.582;5.276;2022-10-16T12:40:30;7.32;;;2.38;;
39016;SDS011;24784;45.582;5.276;2022-10-16T12:42:59;5.38;;;1.85;;
39016;SDS011;24784;45.582;5.276;2022-10-16T12:48:18;3.92;;;2.17;;
39016;SDS011;24784;45.582;5.276;2022-10-16T12:50:46;7.20;;;2.20;;
39016;SDS011;24784;45.582;5.276;2022-10-16T12:53:25;7.05;;;2.08;;
39016;SDS011;24784;45.582;5.276;2022-10-16T12:55:56;4.28;;;1.90;;
39016;SDS011;24784;45.582;5.276;2022-10-16T12:58:41;5.30;;;2.40;;
39016;SDS011;24784;45.582;5.276;2022-10-16T13:01:29;6.05;;;2.13;;
39016;SDS011;24784;45.582;5.276;2022-10-16T13:04:20;5.88;;;2.20;;
39016;SDS011;24784;45.582;5.276;2022-10-16T13:07:17;4.95;;;2.42;;
39016;SDS011;24784;45.582;5.276;2022-10-16T13:18:16;5.07;;;1.98;;
39016;SDS011;24784;45.582;5.276;2022-10-16T13:26:09;4.47;;;2.45;;
39016;SDS011;24784;45.582;5.276;2022-10-16T13:28:38;6.75;;;2.25;;
39016;SDS011;24784;45.582;5.276;2022-10-16T13:31:04;5.15;;;2.40;;
39016;SDS011;24784;45.582;5.276;2022-10-16T13:33:37;4.63;;;2.05;;
39016;SDS011;24784;45.582;5.276;2022-10-16T13:39:11;6.45;;;2.05;;
39016;SDS011;24784;45.582;5.276;2022-10-16T13:41:37;8.68;;;2.65;;
39016;SDS011;24784;45.582;5.276;2022-10-16T13:44:03;5.32;;;2.45;;
39016;SDS011;24784;45.582;5.276;2022-10-16T13:46:30;10.70;;;2.53;;
39016;SDS011;24784;45.582;5.276;2022-10-16T13:51:29;7.00;;;2.53;;
39016;SDS011;24784;45.582;5.276;2022-10-16T13:53:56;4.05;;;2.13;;
39016;SDS011;24784;45.582;5.276;2022-10-16T13:56:25;5.22;;;2.20;;
39016;SDS011;24784;45.582;5.276;2022-10-16T13:59:03;9.27;;;2.40;;
39016;SDS011;24784;45.582;5.276;2022-10-16T14:04:13;4.30;;;2.40;;
39016;SDS011;24784;45.582;5.276;2022-10-16T14:06:43;3.42;;;2.50;;
39016;SDS011;24784;45.582;5.276;2022-10-16T14:11:49;3.65;;;2.40;;
39016;SDS011;24784;45.582;5.276;2022-10-16T14:14:16;4.47;;;2.58;;
39016;SDS011;24784;45.582;5.276;2022-10-16T14:16:43;4.75;;;2.60;;
39016;SDS011;24784;45.582;5.276;2022-10-16T14:21:51;8.95;;;2.92;;
39016;SDS011;24784;45.582;5.276;2022-10-16T14:26:55;5.22;;;2.65;;
39016;SDS011;24784;45.582;5.276;2022-10-16T14:29:21;4.32;;;2.63;;
39016;SDS011;24784;45.582;5.276;2022-10-16T14:31:59;3.65;;;2.30;;
39016;SDS011;24784;45.582;5.276;2022-10-16T14:34:30;5.03;;;2.70;;
39016;SDS011;24784;45.582;5.276;2022-10-16T14:37:40;4.28;;;3.00;;
39016;SDS011;24784;45.582;5.276;2022-10-16T14:39:52;4.55;;;2.40;;
39016;SDS011;24784;45.582;5.276;2022-10-16T14:42:20;7.40;;;2.70;;
39016;SDS011;24784;45.582;5.276;2022-10-16T14:44:49;5.25;;;3.28;;
39016;SDS011;24784;45.582;5.276;2022-10-16T14:47:18;4.80;;;2.50;;
39016;SDS011;24784;45.582;5.276;2022-10-16T14:49:49;8.68;;;3.35;;
39016;SDS011;24784;45.582;5.276;2022-10-16T14:52:15;6.47;;;2.80;;
39016;SDS011;24784;45.582;5.276;2022-10-16T14:54:42;8.90;;;2.80;;
39016;SDS011;24784;45.582;5.276;2022-10-16T14:57:22;7.90;;;2.90;;
39016;SDS011;24784;45.582;5.276;2022-10-16T14:59:51;4.18;;;2.63;;
39016;SDS011;24784;45.582;5.276;2022-10-16T15:04:47;5.03;;;3.00;;
39016;SDS011;24784;45.582;5.276;2022-10-16T15:07:13;5.63;;;2.72;;
39016;SDS011;24784;45.582;5.276;2022-10-16T15:20:00;7.05;;;3.15;;
39016;SDS011;24784;45.582;5.276;2022-10-16T15:22:26;3.20;;;2.67;;
39016;SDS011;24784;45.582;5.276;2022-10-16T15:24:52;7.38;;;2.95;;
39016;SDS011;24784;45.582;5.276;2022-10-16T15:27:18;5.22;;;3.50;;
39016;SDS011;24784;45.582;5.276;2022-10-16T15:32:21;5.78;;;2.95;;
39016;SDS011;24784;45.582;5.276;2022-10-16T15:45:21;6.07;;;2.90;;
39016;SDS011;24784;45.582;5.276;2022-10-16T16:11:23;4.22;;;2.72;;
39016;SDS011;24784;45.582;5.276;2022-10-16T16:14:05;5.90;;;2.50;;
39016;SDS011;24784;45.582;5.276;2022-10-16T16:16:31;3.28;;;2.35;;
39016;SDS011;24784;45.582;5.276;2022-10-16T17:27:22;12.50;;;3.78;;
39016;SDS011;24784;45.582;5.276;2022-10-16T17:56:29;7.78;;;4.20;;
39016;SDS011;24784;45.582;5.276;2022-10-16T18:01:53;5.20;;;4.30;;
39016;SDS011;24784;45.582;5.276;2022-10-16T18:17:51;8.05;;;4.45;;
39016;SDS011;24784;45.582;5.276;2022-10-16T18:49:56;10.70;;;4.88;;
39016;SDS011;24784;45.582;5.276;2022-10-16T19:21:17;9.10;;;4.38;;
39016;SDS011;24784;45.582;5.276;2022-10-16T20:48:53;5.78;;;4.15;;
39016;SDS011;24784;45.582;5.276;2022-10-16T20:51:22;8.85;;;4.50;;
39016;SDS011;24784;45.582;5.276;2022-10-16T20:53:54;8.43;;;4.25;;
39016;SDS011;24784;45.582;5.276;2022-10-16T20:56:31;9.95;;;4.50;;
39016;SDS011;24784;45.582;5.276;2022-10-16T20:58:58;12.18;;;4.07;;
39016;SDS011;24784;45.582;5.276;2022-10-16T21:01:25;9.93;;;4.32;;
39016;SDS011;24784;45.582;5.276;2022-10-16T21:03:56;9.15;;;4.07;;
39016;SDS011;24784;45.582;5.276;2022-10-16T21:06:23;9.77;;;4.30;;
39016;SDS011;24784;45.582;5.276;2022-10-16T21:08:49;9.20;;;4.13;;
39016;SDS011;24784;45.582;5.276;2022-10-16T21:11:19;10.88;;;4.43;;
39016;SDS011;24784;45.582;5.276;2022-10-16T21:13:51;10.35;;;4.10;;
39016;SDS011;24784;45.582;5.276;2022-10-16T21:16:17;9.27;;;5.18;;
39016;SDS011;24784;45.582;5.276;2022-10-16T21:18:44;7.22;;;4.28;;
39016;SDS011;24784;45.582;5.276;2022-10-16T21:21:10;10.15;;;4.35;;
39016;SDS011;24784;45.582;5.276;2022-10-16T21:23:43;9.30;;;4.43;;
39016;SDS011;24784;45.582;5.276;2022-10-16T21:26:09;10.82;;;4.07;;
39016;SDS011;24784;45.582;5.276;2022-10-16T21:28:35;10.05;;;4.45;;
39016;SDS011;24784;45.582;5.276;2022-10-16T21:31:09;8.40;;;3.95;;
39016;SDS011;24784;45.582;5.276;2022-10-16T21:33:40;7.25;;;4.32;;
39016;SDS011;24784;45.582;5.276;2022-10-16T21:36:16;8.98;;;4.38;;
39016;SDS011;24784;45.582;5.276;2022-10-16T21:38:42;10.98;;;4.57;;
39016;SDS011;24784;45.582;5.276;2022-10-16T21:41:27;8.13;;;3.90;;
39016;SDS011;24784;45.582;5.276;2022-10-16T21:43:54;10.00;;;4.70;;
39016;SDS011;24784;45.582;5.276;2022-10-16T21:46:22;7.50;;;4.40;;
39016;SDS011;24784;45.582;5.276;2022-10-16T21:48:56;10.63;;;5.55;;
39016;SDS011;24784;45.582;5.276;2022-10-16T21:51:36;9.48;;;4.50;;
39016;SDS011;24784;45.582;5.276;2022-10-16T21:54:04;5.72;;;4.10;;
39016;SDS011;24784;45.582;5.276;2022-10-16T21:56:31;9.40;;;4.10;;
39016;SDS011;24784;45.582;5.276;2022-10-16T21:58:58;9.60;;;4.20;;
39016;SDS011;24784;45.582;5.276;2022-10-16T22:01:24;5.80;;;4.25;;
39016;SDS011;24784;45.582;5.276;2022-10-16T22:03:51;9.52;;;4.03;;
39016;SDS011;24784;45.582;5.276;2022-10-16T22:06:18;6.28;;;3.78;;
39016;SDS011;24784;45.582;5.276;2022-10-16T22:08:46;8.52;;;4.07;;
39016;SDS011;24784;45.582;5.276;2022-10-16T22:13:42;10.50;;;4.82;;
39016;SDS011;24784;45.582;5.276;2022-10-16T22:16:08;6.28;;;4.20;;
39016;SDS011;24784;45.582;5.276;2022-10-16T22:18:35;12.75;;;4.50;;
39016;SDS011;24784;45.582;5.276;2022-10-16T22:21:03;12.82;;;4.93;;
39016;SDS011;24784;45.582;5.276;2022-10-16T22:23:31;11.05;;;4.57;;
39016;SDS011;24784;45.582;5.276;2022-10-16T22:26:00;7.20;;;4.70;;
39016;SDS011;24784;45.582;5.276;2022-10-16T22:28:33;7.35;;;4.22;;
39016;SDS011;24784;45.582;5.276;2022-10-16T22:30:59;10.43;;;4.70;;
39016;SDS011;24784;45.582;5.276;2022-10-16T22:33:26;8.02;;;4.30;;
39016;SDS011;24784;45.582;5.276;2022-10-16T22:35:52;11.27;;;4.43;;
39016;SDS011;24784;45.582;5.276;2022-10-16T22:38:18;10.23;;;5.25;;
39016;SDS011;24784;45.582;5.276;2022-10-16T22:40:43;8.80;;;3.83;;
39016;SDS011;24784;45.582;5.276;2022-10-16T22:43:10;10.82;;;4.30;;
39016;SDS011;24784;45.582;5.276;2022-10-16T22:45:36;11.13;;;4.15;;
39016;SDS011;24784;45.582;5.276;2022-10-16T22:48:02;12.57;;;4.47;;
39016;SDS011;24784;45.582;5.276;2022-10-16T22:50:28;9.73;;;4.05;;
39016;SDS011;24784;45.582;5.276;2022-10-16T22:52:55;9.40;;;3.95;;
39016;SDS011;24784;45.582;5.276;2022-10-16T22:55:21;9.52;;;3.95;;
39016;SDS011;24784;45.582;5.276;2022-10-16T22:57:47;12.45;;;4.25;;
39016;SDS011;24784;45.582;5.276;2022-10-16T23:00:14;7.22;;;4.05;;
39016;SDS011;24784;45.582;5.276;2022-10-16T23:02:42;8.57;;;4.30;;
39016;SDS011;24784;45.582;5.276;2022-10-16T23:05:08;7.57;;;4.50;;
39016;SDS011;24784;45.582;5.276;2022-10-16T23:07:35;7.93;;;4.15;;
39016;SDS011;24784;45.582;5.276;2022-10-16T23:10:03;8.52;;;4.28;;
39016;SDS011;24784;45.582;5.276;2022-10-16T23:12:30;8.70;;;3.85;;
39016;SDS011;24784;45.582;5.276;2022-10-16T23:18:16;9.40;;;4.43;;
39016;SDS011;24784;45.582;5.276;2022-10-16T23:21:00;7.28;;;3.80;;
39016;SDS011;24784;45.582;5.276;2022-10-16T23:23:29;9.32;;;3.92;;
39016;SDS011;24784;45.582;5.276;2022-10-16T23:25:58;8.73;;;3.97;;
39016;SDS011;24784;45.582;5.276;2022-10-16T23:28:24;7.68;;;4.53;;
39016;SDS011;24784;45.582;5.276;2022-10-16T23:30:53;10.95;;;4.30;;
39016;SDS011;24784;45.582;5.276;2022-10-16T23:33:19;11.70;;;4.43;;
39016;SDS011;24784;45.582;5.276;2022-10-16T23:35:44;7.88;;;4.38;;
39016;SDS011;24784;45.582;5.276;2022-10-16T23:38:10;6.93;;;3.95;;
39016;SDS011;24784;45.582;5.276;2022-10-16T23:40:36;11.00;;;5.22;;
39016;SDS011;24784;45.582;5.276;2022-10-16T23:43:02;7.40;;;3.85;;
39016;SDS011;24784;45.582;5.276;2022-10-16T23:45:27;10.27;;;4.43;;
39016;SDS011;24784;45.582;5.276;2022-10-16T23:47:53;6.28;;;4.45;;
39016;SDS011;24784;45.582;5.276;2022-10-16T23:50:19;6.47;;;3.75;;
39016;SDS011;24784;45.582;5.276;2022-10-16T23:52:45;8.50;;;4.68;;
39016;SDS011;24784;45.582;5.276;2022-10-16T23:55:10;10.05;;;4.07;;
39016;SDS011;24784;45.582;5.276;2022-10-16T23:57:36;7.70;;;3.92;;
